Time;durP1;ratioP1;P1;durP2;ratioP2;P2;SDS_P1;SDS_P2;PMS_P1;PMS_P2;Temp;Humidity;BMP_temperature;BMP_pressure;BME280_temperature;BME280_humidity;BME280_pressure;Samples;Min_cycle;Max_cycle;Signal;HPM_P1;HPM_P2
2023/09/23 00:02:17;108656.00;0.36;188.51;0.00;0.00;0.62;;;;;17.20;1.00;;;;;;2272351;61;1115;-86
2023/09/23 00:04:45;34076.00;0.11;59.64;0.00;0.00;0.62;;;;;17.40;1.00;;;;;;2289995;40;3739;-87
2023/09/23 00:07:12;295455.00;0.98;510.11;33898.00;0.11;59.33;;;;;17.50;1.00;;;;;;2268065;61;1665;-87
2023/09/23 00:09:39;223753.00;0.75;386.80;0.00;0.00;0.62;;;;;17.70;1.00;;;;;;2268167;61;1353;-88
2023/09/23 00:12:08;163762.00;0.55;283.52;0.00;0.00;0.62;;;;;17.70;1.00;;;;;;2268127;61;1504;-87
2023/09/23 00:14:35;227433.00;0.76;393.13;3540.00;0.01;6.76;;;;;17.60;1.00;;;;;;2264618;61;1454;-87
2023/09/23 00:17:04;417401.00;1.39;719.72;0.00;0.00;0.62;;;;;17.30;1.00;;;;;;2279213;40;3642;-87
2023/09/23 00:19:34;102884.00;0.34;178.55;0.00;0.00;0.62;;;;;17.60;1.00;;;;;;2271999;61;2181;-87
2023/09/23 00:22:01;100730.00;0.34;174.83;0.00;0.00;0.62;;;;;18.10;1.00;;;;;;2272081;61;1150;-91
2023/09/23 00:24:28;148318.00;0.49;256.91;0.00;0.00;0.62;;;;;18.60;1.00;;;;;;2272094;61;972;-90
2023/09/23 00:26:59;232268.00;0.77;401.45;0.00;0.00;0.62;;;;;18.80;1.00;;;;;;2272216;61;933;-86
2023/09/23 00:29:28;93530.00;0.31;162.40;0.00;0.00;0.62;;;;;18.90;1.00;;;;;;2272179;61;1296;-87
2023/09/23 00:31:56;35832.00;0.12;62.68;0.00;0.00;0.62;;;;;19.30;1.00;;;;;;2272140;61;1747;-88
2023/09/23 00:34:23;0.00;0.00;0.62;0.00;0.00;0.62;;;;;19.00;1.00;;;;;;2272120;61;1016;-87
2023/09/23 00:36:51;66890.00;0.22;116.39;0.00;0.00;0.62;;;;;19.00;1.00;;;;;;2272069;61;2002;-88
2023/09/23 00:39:18;140643.00;0.47;243.68;0.00;0.00;0.62;;;;;18.50;1.00;;;;;;2272005;61;1728;-87
2023/09/23 00:41:45;274227.00;0.91;473.61;0.00;0.00;0.62;;;;;18.10;1.00;;;;;;2272054;61;1075;-86
2023/09/23 00:44:12;215405.00;0.72;372.44;0.00;0.00;0.62;;;;;17.90;1.00;;;;;;2272021;61;1690;-86
2023/09/23 00:46:44;211756.00;0.71;366.16;0.00;0.00;0.62;;;;;17.80;1.00;;;;;;2272027;61;1661;-86
2023/09/23 00:49:12;91773.00;0.31;159.37;0.00;0.00;0.62;;;;;17.90;1.00;;;;;;2272118;61;1626;-87
2023/09/23 00:51:41;0.00;0.00;0.62;0.00;0.00;0.62;;;;;17.80;1.00;;;;;;2272114;61;1714;-87
2023/09/23 00:54:08;228888.00;0.76;395.64;0.00;0.00;0.62;;;;;17.80;1.00;;;;;;2271985;61;1999;-86
2023/09/23 00:59:06;1064921.00;3.55;1847.80;0.00;0.00;0.62;;;;;18.00;1.00;;;;;;2269456;61;1959;-89
2023/09/23 01:01:33;95855.00;0.32;166.42;0.00;0.00;0.62;;;;;18.20;1.00;;;;;;2263776;61;1192;-87
2023/09/23 01:04:04;114327.00;0.38;198.30;0.00;0.00;0.62;;;;;18.20;1.00;;;;;;2263936;61;1019;-86
2023/09/23 01:06:31;23813.00;0.08;41.87;0.00;0.00;0.62;;;;;17.80;1.00;;;;;;2263963;61;2022;-86
2023/09/23 01:09:00;132551.00;0.44;229.73;0.00;0.00;0.62;;;;;17.70;1.00;;;;;;2263763;61;1714;-88
2023/09/23 01:11:29;55957.00;0.19;97.49;0.00;0.00;0.62;;;;;17.50;1.00;;;;;;2263916;61;1199;-87
2023/09/23 01:13:56;31145.00;0.10;54.56;0.00;0.00;0.62;;;;;17.40;1.00;;;;;;2263858;61;2239;-88
2023/09/23 01:18:59;339648.00;1.13;586.07;0.00;0.00;0.62;;;;;16.90;1.00;;;;;;2333410;41;2144;-87
2023/09/23 01:21:27;172617.00;0.58;298.77;0.00;0.00;0.62;;;;;16.90;1.00;;;;;;2279919;40;3819;-86
2023/09/23 01:26:31;803823.00;2.68;1387.79;0.00;0.00;0.62;;;;;16.60;1.00;;;;;;2269304;61;1351;-85
2023/09/23 01:28:58;103922.00;0.35;180.34;0.00;0.00;0.62;;;;;16.50;1.00;;;;;;2267907;61;1176;-84
2023/09/23 01:31:29;236094.00;0.79;408.03;0.00;0.00;0.62;;;;;16.40;1.00;;;;;;2267817;61;1505;-88
2023/09/23 01:33:56;37458.00;0.12;65.49;0.00;0.00;0.62;;;;;16.40;1.00;;;;;;2268003;61;1016;-87
2023/09/23 01:36:23;55123.00;0.18;96.05;0.00;0.00;0.62;;;;;16.70;1.00;;;;;;2327276;41;3769;-86
2023/09/23 01:38:50;254455.00;0.85;439.61;0.00;0.00;0.62;;;;;16.80;1.00;;;;;;2292343;40;3763;-87
2023/09/23 01:41:17;233788.00;0.78;404.07;0.00;0.00;0.62;;;;;16.90;1.00;;;;;;2275715;61;1737;-86
2023/09/23 01:43:45;142056.00;0.47;246.12;0.00;0.00;0.62;;;;;16.90;1.00;;;;;;2275843;61;1570;-88
2023/09/23 01:46:12;363892.00;1.21;627.74;0.00;0.00;0.62;;;;;17.00;1.00;;;;;;2291201;56;3806;-87
2023/09/23 01:48:39;0.00;0.00;0.62;0.00;0.00;0.62;;;;;16.90;1.00;;;;;;2267739;61;1089;-85
2023/09/23 01:51:10;72044.00;0.24;125.29;0.00;0.00;0.62;;;;;16.80;1.00;;;;;;2267883;61;1357;-87
2023/09/23 01:53:36;57004.00;0.19;99.30;0.00;0.00;0.62;;;;;16.70;1.00;;;;;;2267684;61;1740;-88
2023/09/23 01:56:06;302772.00;1.01;522.69;0.00;0.00;0.62;;;;;16.70;1.00;;;;;;2271455;40;3587;-86
2023/09/23 01:58:33;558261.00;1.86;962.20;0.00;0.00;0.62;;;;;16.40;1.00;;;;;;2312978;40;3758;-87
2023/09/23 02:01:04;134034.00;0.45;232.29;0.00;0.00;0.62;;;;;16.30;1.00;;;;;;2271785;61;1258;-87
2023/09/23 02:03:31;53082.00;0.18;92.52;0.00;0.00;0.62;;;;;16.70;1.00;;;;;;2271672;61;1071;-87
2023/09/23 02:05:58;216841.00;0.72;374.91;0.00;0.00;0.62;;;;;16.90;1.00;;;;;;2272873;55;3745;-86
2023/09/23 02:08:24;507096.00;1.69;874.04;47828.00;0.16;83.43;;;;;17.30;1.00;;;;;;2267661;61;1007;-88
2023/09/23 02:10:52;231233.00;0.77;399.67;0.00;0.00;0.62;;;;;17.50;1.00;;;;;;2267704;61;1633;-86
2023/09/23 02:15:48;871883.00;2.91;1506.79;0.00;0.00;0.62;;;;;17.40;1.00;;;;;;2295936;56;3596;-87
2023/09/23 02:20:46;876630.00;2.92;1515.11;39575.00;0.13;69.15;;;;;17.10;1.00;;;;;;2268471;61;1385;-86
2023/09/23 02:23:14;214589.00;0.72;371.03;53087.00;0.18;92.52;;;;;17.00;1.00;;;;;;2289443;55;3792;-86
2023/09/23 02:25:41;401188.00;1.34;691.85;0.00;0.00;0.62;;;;;17.00;1.00;;;;;;2271317;61;1863;-88
2023/09/23 02:28:10;175524.00;0.59;303.78;0.00;0.00;0.62;;;;;16.80;1.00;;;;;;2271777;61;1056;-87
2023/09/23 02:30:37;114354.00;0.38;198.34;0.00;0.00;0.62;;;;;17.10;1.00;;;;;;2273805;55;3818;-88
2023/09/23 02:38:05;1279253.00;4.26;2234.19;0.00;0.00;0.62;;;;;17.60;1.00;;;;;;2273897;40;3532;-87
2023/09/23 02:40:32;256834.00;0.86;443.70;0.00;0.00;0.62;;;;;17.60;1.00;;;;;;2276919;55;3803;-88
2023/09/23 02:42:59;81638.00;0.27;141.87;0.00;0.00;0.62;;;;;17.80;1.00;;;;;;2271633;61;1109;-87
2023/09/23 02:47:58;844050.00;2.81;1458.06;0.00;0.00;0.62;;;;;17.40;1.00;;;;;;2271206;56;3742;-88
2023/09/23 02:50:25;166048.00;0.55;287.46;0.00;0.00;0.62;;;;;17.50;1.00;;;;;;2283281;40;3818;-88
2023/09/23 02:52:53;0.00;0.00;0.62;0.00;0.00;0.62;;;;;17.00;1.00;;;;;;2271547;61;1128;-88
2023/09/23 02:57:52;996804.00;3.32;1726.81;0.00;0.00;0.62;;;;;16.10;1.00;;;;;;2286760;55;3690;-89
2023/09/23 03:00:22;34536.00;0.12;60.43;0.00;0.00;0.62;;;;;16.00;1.00;;;;;;2267215;61;1601;-88
2023/09/23 03:02:54;0.00;0.00;0.62;0.00;0.00;0.62;;;;;15.90;1.00;;;;;;2267618;61;1041;-89
2023/09/23 03:08:15;1144806.00;3.82;1990.74;0.00;0.00;0.62;;;;;16.10;1.00;;;;;;2293729;60;1428;-88
2023/09/23 03:10:44;367399.00;1.22;633.77;0.00;0.00;0.62;;;;;16.00;1.00;;;;;;2296054;40;3679;-88
2023/09/23 03:15:44;959522.00;3.20;1660.91;0.00;0.00;0.62;;;;;16.10;1.00;;;;;;2336955;56;3622;-87
2023/09/23 03:18:14;390107.00;1.30;672.80;26711.00;0.09;46.89;;;;;16.10;1.00;;;;;;2277616;56;3742;-89
2023/09/23 03:20:41;98116.00;0.33;170.32;0.00;0.00;0.62;;;;;16.40;1.00;;;;;;2271006;60;1413;-89
2023/09/23 03:23:10;183449.00;0.61;317.43;0.00;0.00;0.62;;;;;16.50;1.00;;;;;;2359796;41;3799;-87
2023/09/23 03:25:45;174014.00;0.58;301.18;0.00;0.00;0.62;;;;;16.70;1.00;;;;;;2280947;40;3777;-86
2023/09/23 03:28:15;544093.00;1.81;937.78;0.00;0.00;0.62;;;;;16.70;1.00;;;;;;2296268;40;3797;-87
2023/09/23 03:30:43;150241.00;0.50;260.22;0.00;0.00;0.62;;;;;16.60;1.00;;;;;;2283484;60;2072;-88
2023/09/23 03:33:11;113778.00;0.38;197.35;0.00;0.00;0.62;;;;;16.60;1.00;;;;;;2283446;60;1602;-89
2023/09/23 03:35:39;60740.00;0.20;105.76;0.00;0.00;0.62;;;;;16.80;1.00;;;;;;2273606;40;3604;-89
2023/09/23 03:38:06;101429.00;0.34;176.04;0.00;0.00;0.62;;;;;17.00;1.00;;;;;;2271697;61;2165;-86
2023/09/23 03:40:33;251249.00;0.84;434.10;0.00;0.00;0.62;;;;;17.10;1.00;;;;;;2271616;61;1570;-88
2023/09/23 03:45:33;932688.00;3.11;1613.60;0.00;0.00;0.62;;;;;17.00;1.00;;;;;;2275252;56;3603;-86
2023/09/23 03:48:00;155403.00;0.52;269.12;0.00;0.00;0.62;;;;;17.20;1.00;;;;;;2269088;40;3474;-87
2023/09/23 03:50:27;192802.00;0.64;333.53;0.00;0.00;0.62;;;;;17.10;1.00;;;;;;2268459;55;3819;-86
2023/09/23 03:55:30;522306.00;1.74;900.24;72657.00;0.24;126.35;;;;;16.90;1.00;;;;;;2274302;56;3660;-88
2023/09/23 04:00:27;803485.00;2.68;1387.20;0.00;0.00;0.62;;;;;17.50;1.00;;;;;;2270552;56;3625;-88
2023/09/23 04:02:55;122862.00;0.41;213.02;0.00;0.00;0.62;;;;;17.70;1.00;;;;;;2254720;61;1257;-87
2023/09/23 04:05:25;169478.00;0.56;293.37;0.00;0.00;0.62;;;;;18.10;1.00;;;;;;2254711;61;1055;-87
2023/09/23 04:07:52;269911.00;0.90;466.19;79863.00;0.27;138.80;;;;;17.90;1.00;;;;;;2264641;56;3590;-88
2023/09/23 04:10:22;408708.00;1.36;704.78;66215.00;0.22;115.22;;;;;17.80;1.00;;;;;;2269358;40;3600;-88
2023/09/23 04:18:18;789920.00;2.63;1363.55;148968.00;0.50;258.03;;;;;17.30;1.00;;;;;;844327;40;3769;-86
2023/09/23 04:23:22;837336.00;2.79;1446.32;18124.00;0.06;32.02;;;;;17.00;1.00;;;;;;2295966;40;3539;-86
2023/09/23 04:33:28;725358.00;2.42;1251.24;0.00;0.00;0.62;;;;;16.80;1.00;;;;;;2270647;40;3525;-87
2023/09/23 04:35:56;409318.00;1.36;705.82;0.00;0.00;0.62;;;;;16.80;1.00;;;;;;2271226;41;3539;-87
2023/09/23 04:43:27;654070.00;2.18;1127.68;0.00;0.00;0.62;;;;;17.10;1.00;;;;;;2266469;40;3582;-88
2023/09/23 04:48:30;390046.00;1.30;672.69;0.00;0.00;0.62;;;;;17.40;1.00;;;;;;2290306;40;3423;-88
2023/09/23 04:50:57;321883.00;1.07;555.53;0.00;0.00;0.62;;;;;17.30;1.00;;;;;;2259845;57;3720;-87
2023/09/23 04:53:27;457161.00;1.52;788.10;0.00;0.00;0.62;;;;;17.70;1.00;;;;;;2275312;57;3728;-86
2023/09/23 04:55:54;164141.00;0.55;284.17;0.00;0.00;0.62;;;;;17.70;1.00;;;;;;2294118;57;3776;-87
2023/09/23 05:00:54;1119561.00;3.73;1945.44;0.00;0.00;0.62;;;;;17.90;1.00;;;;;;2269667;41;3486;-86
2023/09/23 05:03:23;333903.00;1.11;576.19;0.00;0.00;0.62;;;;;18.00;1.00;;;;;;2259070;56;3743;-88
2023/09/23 05:08:21;1162436.00;3.87;2022.45;63517.00;0.21;110.56;;;;;18.00;1.00;;;;;;2253740;61;1976;-88
2023/09/23 05:13:18;814974.00;2.72;1407.25;18400.00;0.06;32.50;;;;;17.60;1.00;;;;;;2271355;57;3616;-87
2023/09/23 05:18:23;195413.00;0.65;338.03;0.00;0.00;0.62;;;;;17.40;1.00;;;;;;2320027;57;2171;-88
2023/09/23 05:20:51;198726.00;0.66;343.73;0.00;0.00;0.62;;;;;17.70;1.00;;;;;;2327468;56;3728;-85
2023/09/23 05:23:18;140535.00;0.47;243.49;0.00;0.00;0.62;;;;;18.10;1.00;;;;;;2291898;40;3629;-87
2023/09/23 05:25:45;409596.00;1.37;706.30;0.00;0.00;0.62;;;;;18.10;1.00;;;;;;2279629;40;3713;-87
2023/09/23 05:28:12;231508.00;0.77;400.14;0.00;0.00;0.62;;;;;18.00;1.00;;;;;;2327978;41;3586;-85
2023/09/23 05:30:39;445254.00;1.48;767.62;0.00;0.00;0.62;;;;;17.80;1.00;;;;;;2260268;41;3576;-88
2023/09/23 05:33:06;183702.00;0.61;317.86;53554.00;0.18;93.33;;;;;17.80;1.00;;;;;;2251659;61;1102;-86
2023/09/23 05:35:39;214685.00;0.72;371.20;0.00;0.00;0.62;;;;;17.90;1.00;;;;;;2251818;61;1295;-87
2023/09/23 05:38:07;166170.00;0.55;287.67;0.00;0.00;0.62;;;;;18.10;1.00;;;;;;2251835;61;1778;-87
2023/09/23 05:43:11;188564.00;0.63;326.24;0.00;0.00;0.62;;;;;18.00;1.00;;;;;;1521406;60;1821;-87
2023/09/23 05:45:38;92369.00;0.31;160.40;25845.00;0.09;45.39;;;;;17.90;1.00;;;;;;2251896;61;1593;-86
2023/09/23 05:48:06;362696.00;1.21;625.68;45748.00;0.15;79.83;;;;;17.80;1.00;;;;;;2281839;57;3798;-89
2023/09/23 05:53:02;618014.00;2.06;1065.33;0.00;0.00;0.62;;;;;18.00;1.00;;;;;;2253736;61;1404;-88
2023/09/23 05:55:34;169943.00;0.57;294.17;0.00;0.00;0.62;;;;;18.10;1.00;;;;;;2251811;61;1005;-87
2023/09/23 05:58:01;341947.00;1.14;590.02;1796.00;0.01;3.73;;;;;18.20;1.00;;;;;;2251880;61;1159;-88
2023/09/23 06:00:28;321870.00;1.07;555.51;76125.00;0.25;132.34;;;;;18.10;1.00;;;;;;2251721;61;1406;-89
2023/09/23 06:02:55;170365.00;0.57;294.90;67296.00;0.22;117.09;;;;;18.20;1.00;;;;;;2251817;61;1616;-88
2023/09/23 06:05:22;196511.00;0.66;339.92;0.00;0.00;0.62;;;;;18.40;1.00;;;;;;2251831;61;1225;-88
2023/09/23 06:07:49;196780.00;0.66;340.38;0.00;0.00;0.62;;;;;18.00;1.00;;;;;;2270672;40;3467;-86
2023/09/23 06:10:18;182513.00;0.61;315.82;26485.00;0.09;46.50;;;;;18.10;1.00;;;;;;2281190;40;3681;-87
2023/09/23 06:12:46;271024.00;0.90;468.10;0.00;0.00;0.62;;;;;18.10;1.00;;;;;;2255532;61;1652;-86
2023/09/23 06:15:16;241456.00;0.80;417.26;0.00;0.00;0.62;;;;;18.30;1.00;;;;;;2255550;61;1678;-88
2023/09/23 06:30:28;292820.00;0.98;505.58;71111.00;0.24;123.68;;;;;16.40;1.00;;;;;;2371621;41;2185;-87
2023/09/23 06:32:56;238361.00;0.79;411.93;33182.00;0.11;58.09;;;;;16.40;1.00;;;;;;2252448;61;1579;-89
2023/09/23 06:38:01;757567.00;2.53;1307.22;0.00;0.00;0.62;;;;;16.60;1.00;;;;;;2254241;61;1345;-88
2023/09/23 06:40:30;272472.00;0.91;470.59;50270.00;0.17;87.65;;;;;16.40;1.00;;;;;;2252365;61;1743;-89
2023/09/23 06:45:31;768349.00;2.56;1325.98;0.00;0.00;0.62;;;;;16.60;1.00;;;;;;2253608;61;1313;-89
2023/09/23 06:48:00;494658.00;1.65;852.63;92445.00;0.31;160.53;;;;;16.70;1.00;;;;;;2251705;61;2009;-88
2023/09/23 06:58:06;966407.00;3.22;1673.06;72185.00;0.24;125.54;;;;;16.60;1.00;;;;;;2253566;61;1405;-89
2023/09/23 07:00:35;444489.00;1.48;766.30;123067.00;0.41;213.37;;;;;16.50;1.00;;;;;;2251521;61;1564;-87
2023/09/23 07:08:03;1373794.00;4.58;2407.81;73886.00;0.25;128.47;;;;;17.00;1.00;;;;;;2249110;61;1957;-89
2023/09/23 07:10:38;859153.00;2.86;1484.49;77450.00;0.26;134.63;;;;;17.30;1.00;;;;;;2298225;41;3704;-86
2023/09/23 07:15:38;519537.00;1.73;895.47;77520.00;0.26;134.75;;;;;17.80;1.00;;;;;;2253517;61;1395;-88
2023/09/23 07:18:06;916044.00;3.05;1584.32;90755.00;0.30;157.61;;;;;17.80;1.00;;;;;;2251777;61;1047;-88
2023/09/23 07:20:34;559284.00;1.86;963.97;68876.00;0.23;119.82;;;;;17.60;1.00;;;;;;2251781;61;1345;-87
2023/09/23 07:23:01;669276.00;2.23;1154.00;113042.00;0.38;196.08;;;;;17.70;1.00;;;;;;2251701;61;1528;-88
2023/09/23 07:25:29;621106.00;2.07;1070.68;77518.00;0.26;134.75;;;;;17.70;1.00;;;;;;2280707;40;3756;-89
2023/09/23 07:27:58;653771.00;2.18;1127.16;79107.00;0.26;137.49;;;;;18.00;1.00;;;;;;2255756;61;2002;-88
2023/09/23 07:30:25;760652.00;2.54;1312.58;88577.00;0.30;153.85;;;;;18.80;1.00;;;;;;2253323;61;2062;-89
2023/09/23 07:32:53;684834.00;2.28;1180.95;115127.00;0.38;199.68;;;;;19.10;1.00;;;;;;2251682;61;972;-89
2023/09/23 07:35:22;969703.00;3.23;1678.88;64281.00;0.21;111.88;;;;;19.20;1.00;;;;;;2251677;61;1714;-87
2023/09/23 07:37:48;679208.00;2.26;1171.20;17276.00;0.06;30.55;;;;;19.20;1.00;;;;;;2251754;61;954;-88
2023/09/23 07:40:16;737433.00;2.46;1272.21;118437.00;0.39;205.39;;;;;19.00;1.00;;;;;;2251670;61;1364;-87
2023/09/23 07:42:43;924184.00;3.08;1598.64;80549.00;0.27;139.99;;;;;19.30;1.00;;;;;;2251674;61;898;-88
2023/09/23 07:45:11;941335.00;3.14;1628.84;144387.00;0.48;250.13;;;;;19.40;1.00;;;;;;2251665;61;1056;-87
2023/09/23 07:47:38;720660.00;2.40;1243.08;104929.00;0.35;182.08;;;;;19.50;1.00;;;;;;2251683;61;1915;-87
2023/09/23 07:50:06;461447.00;1.54;795.47;76215.00;0.25;132.50;;;;;19.70;1.00;;;;;;2251729;61;1365;-87
2023/09/23 07:52:34;542265.00;1.81;934.63;26525.00;0.09;46.57;;;;;20.00;1.00;;;;;;2251750;61;1719;-88
2023/09/23 07:55:01;297747.00;0.99;514.05;0.00;0.00;0.62;;;;;20.40;1.00;;;;;;2252409;61;929;-88
2023/09/23 07:57:28;346945.00;1.16;598.61;0.00;0.00;0.62;;;;;20.40;1.00;;;;;;2252388;61;1606;-87
2023/09/23 07:59:55;258831.00;0.86;447.14;3500.00;0.01;6.69;;;;;20.80;1.00;;;;;;2252344;61;1340;-86
2023/09/23 08:02:22;411132.00;1.37;708.94;0.00;0.00;0.62;;;;;20.60;1.00;;;;;;2252452;61;929;-88
2023/09/23 08:04:49;874884.00;2.92;1512.05;84208.00;0.28;146.31;;;;;20.60;1.00;;;;;;2252279;61;1070;-87
2023/09/23 08:07:19;502964.00;1.68;866.93;77284.00;0.26;134.35;;;;;21.10;1.00;;;;;;2252347;61;1915;-89
2023/09/23 08:09:46;505104.00;1.68;870.61;0.00;0.00;0.62;;;;;21.00;1.00;;;;;;2252343;61;1417;-86
2023/09/23 08:12:14;536952.00;1.79;925.47;0.00;0.00;0.62;;;;;21.50;1.00;;;;;;2252384;61;1017;-87
2023/09/23 08:14:41;620242.00;2.07;1069.18;52178.00;0.17;90.95;;;;;21.40;1.00;;;;;;2252239;61;1193;-87
2023/09/23 08:17:08;479404.00;1.60;826.37;73165.00;0.24;127.23;;;;;21.60;1.00;;;;;;2261915;56;3724;-87
2023/09/23 08:19:35;507181.00;1.69;874.19;73703.00;0.25;128.16;;;;;21.60;1.00;;;;;;2255505;61;1303;-87
2023/09/23 08:22:02;523709.00;1.75;902.65;102832.00;0.34;178.46;;;;;21.60;1.00;;;;;;2252343;61;1614;-90
2023/09/23 08:24:30;942348.00;3.14;1630.62;155929.00;0.52;270.02;;;;;22.10;1.00;;;;;;2252344;61;1009;-90
2023/09/23 08:26:58;482342.00;1.61;831.43;68935.00;0.23;119.92;;;;;22.30;1.00;;;;;;2252316;61;1734;-88
2023/09/23 08:29:25;658033.00;2.19;1134.54;52779.00;0.18;91.99;;;;;22.00;1.00;;;;;;2252190;61;2071;-87
2023/09/23 08:31:51;838456.00;2.79;1448.28;98807.00;0.33;171.51;;;;;21.80;1.00;;;;;;2252340;61;1591;-89
2023/09/23 08:36:51;780647.00;2.60;1347.39;74207.00;0.25;129.03;;;;;21.30;1.00;;;;;;2257916;61;1252;-88
2023/09/23 08:39:19;458002.00;1.53;789.55;75849.00;0.25;131.87;;;;;21.50;1.00;;;;;;2256228;61;1356;-87
2023/09/23 08:41:52;435365.00;1.45;750.61;13399.00;0.04;23.84;;;;;21.30;1.00;;;;;;2256217;61;1008;-88
2023/09/23 08:44:25;669922.00;2.23;1155.12;55294.00;0.18;96.34;;;;;20.90;1.00;;;;;;2256270;61;1058;-86
2023/09/23 08:46:54;286645.00;0.96;494.96;0.00;0.00;0.62;;;;;20.40;1.00;;;;;;2256251;61;1541;-87
2023/09/23 08:49:22;527871.00;1.76;909.82;0.00;0.00;0.62;;;;;20.50;1.00;;;;;;2256125;61;2129;-86
2023/09/23 08:51:55;499533.00;1.67;861.02;0.00;0.00;0.62;;;;;20.60;1.00;;;;;;2256192;61;1713;-87
2023/09/23 08:54:23;549437.00;1.83;946.99;0.00;0.00;0.62;;;;;20.40;1.00;;;;;;2256175;61;1123;-86
2023/09/23 08:56:52;446373.00;1.49;769.54;4535.00;0.02;8.48;;;;;20.40;1.00;;;;;;2256209;61;1067;-87
2023/09/23 08:59:19;605710.00;2.02;1044.08;21483.00;0.07;37.84;;;;;20.30;1.00;;;;;;2256139;61;1296;-88
2023/09/23 09:01:46;556660.00;1.86;959.44;33459.00;0.11;58.57;;;;;20.20;1.00;;;;;;2256116;61;1519;-88
2023/09/23 09:04:14;484353.00;1.61;834.89;58059.00;0.19;101.12;;;;;20.10;1.00;;;;;;2256168;61;1011;-87
2023/09/23 09:06:51;639732.00;2.13;1102.88;22808.00;0.08;40.13;;;;;19.90;1.00;;;;;;2256207;61;1085;-87
2023/09/23 09:09:18;99944.00;0.33;173.48;12265.00;0.04;21.87;;;;;19.80;1.00;;;;;;2256074;61;2011;-87
2023/09/23 09:11:46;66030.00;0.22;114.90;0.00;0.00;0.62;;;;;19.70;1.00;;;;;;2256091;61;1622;-87
2023/09/23 09:14:15;306653.00;1.02;529.36;42360.00;0.14;73.97;;;;;19.50;1.00;;;;;;2256187;61;956;-87
2023/09/23 09:16:43;135062.00;0.45;234.06;0.00;0.00;0.62;;;;;19.70;1.00;;;;;;2256109;61;1013;-87
2023/09/23 09:19:10;37773.00;0.13;66.04;0.00;0.00;0.62;;;;;20.10;1.00;;;;;;2256062;61;1652;-87
2023/09/23 09:21:37;331944.00;1.11;572.83;11751.00;0.04;20.98;;;;;20.00;1.00;;;;;;2256106;61;1542;-88
2023/09/23 09:24:05;252316.00;0.84;435.93;0.00;0.00;0.62;;;;;20.60;1.00;;;;;;2256123;61;1629;-88
2023/09/23 09:26:32;247764.00;0.83;428.11;0.00;0.00;0.62;;;;;20.80;1.00;;;;;;2256081;61;1029;-88
2023/09/23 09:28:59;288872.00;0.96;498.79;0.00;0.00;0.62;;;;;20.80;1.00;;;;;;2259026;40;3411;-86
2023/09/23 09:31:33;527970.00;1.76;909.99;12581.00;0.04;22.42;;;;;20.70;1.00;;;;;;2254837;61;1469;-87
2023/09/23 09:34:05;64317.00;0.21;111.94;0.00;0.00;0.62;;;;;20.40;1.00;;;;;;2252662;61;1637;-89
2023/09/23 09:36:34;238585.00;0.80;412.32;0.00;0.00;0.62;;;;;19.80;1.00;;;;;;2252679;61;1687;-88
2023/09/23 09:39:04;7746.00;0.03;14.04;0.00;0.00;0.62;;;;;19.30;1.00;;;;;;2252797;61;991;-89
2023/09/23 09:41:35;5516705.00;18.39;15118.11;1725649.00;5.75;3075.37;;;;;19.60;1.00;;;;;;2252070;61;1546;-87
2023/09/23 09:44:04;358740.00;1.20;618.88;44494.00;0.15;77.66;;;;;20.00;1.00;;;;;;2251873;61;1603;-89
2023/09/23 09:46:32;680291.00;2.27;1173.08;34860.00;0.12;60.99;;;;;20.20;1.00;;;;;;2268663;40;3599;-86
2023/09/23 09:49:01;731869.00;2.44;1262.55;13096.00;0.04;23.31;;;;;20.10;1.00;;;;;;2255885;61;2000;-86
2023/09/23 09:51:33;546947.00;1.82;942.70;75.00;0.00;0.75;;;;;20.20;1.00;;;;;;2252058;61;2378;-86
2023/09/23 09:54:02;180072.00;0.60;311.61;0.00;0.00;0.62;;;;;20.30;1.00;;;;;;2257226;40;3588;-87
2023/09/23 09:56:34;630703.00;2.10;1087.26;11412.00;0.04;20.40;;;;;20.60;1.00;;;;;;2255978;61;1131;-87
2023/09/23 09:59:03;442487.00;1.47;762.86;10713.00;0.04;19.18;;;;;20.40;1.00;;;;;;2256082;61;1024;-87
2023/09/23 10:01:32;324549.00;1.08;560.12;0.00;0.00;0.62;;;;;20.20;1.00;;;;;;2251940;61;1774;-88
2023/09/23 10:03:59;30207.00;0.10;52.94;0.00;0.00;0.62;;;;;20.40;1.00;;;;;;2252074;61;1007;-88
2023/09/23 10:06:26;0.00;0.00;0.62;0.00;0.00;0.62;;;;;20.60;1.00;;;;;;2251959;61;979;-86
2023/09/23 10:08:54;241601.00;0.81;417.51;0.00;0.00;0.62;;;;;20.30;1.00;;;;;;2251895;61;1920;-87
2023/09/23 10:11:34;45070.00;0.15;78.66;0.00;0.00;0.62;;;;;20.50;1.00;;;;;;2251927;61;1302;-87
2023/09/23 10:14:16;53656.00;0.18;93.51;0.00;0.00;0.62;;;;;20.80;1.00;;;;;;2251989;61;1012;-87
2023/09/23 10:16:49;0.00;0.00;0.62;0.00;0.00;0.62;;;;;21.20;1.00;;;;;;2251849;61;1171;-88
2023/09/23 10:19:19;132402.00;0.44;229.47;0.00;0.00;0.62;;;;;21.10;1.00;;;;;;2251989;61;1377;-88
2023/09/23 10:21:47;0.00;0.00;0.62;0.00;0.00;0.62;;;;;20.20;1.00;;;;;;2251718;61;1730;-88
2023/09/23 10:24:23;8344.00;0.03;15.08;0.00;0.00;0.62;;;;;19.80;1.00;;;;;;2251931;61;991;-88
2023/09/23 10:26:51;20736.00;0.07;36.54;0.00;0.00;0.62;;;;;20.10;1.00;;;;;;2251865;61;1087;-87
2023/09/23 10:29:18;201662.00;0.67;348.78;37150.00;0.12;64.96;;;;;20.20;1.00;;;;;;2251756;61;2004;-89
2023/09/23 10:31:46;0.00;0.00;0.62;0.00;0.00;0.62;;;;;20.20;1.00;;;;;;2251928;61;1038;-87
2023/09/23 10:34:14;0.00;0.00;0.62;0.00;0.00;0.62;;;;;20.40;1.00;;;;;;2251848;61;1045;-89
2023/09/23 10:36:41;0.00;0.00;0.62;0.00;0.00;0.62;;;;;20.60;1.00;;;;;;2251834;61;1627;-87
2023/09/23 10:39:16;0.00;0.00;0.62;0.00;0.00;0.62;;;;;21.10;1.00;;;;;;2251826;61;1023;-87
2023/09/23 10:41:44;28329.00;0.09;49.69;0.00;0.00;0.62;;;;;20.90;1.00;;;;;;2251885;61;925;-88
2023/09/23 10:46:46;484852.00;1.62;835.75;0.00;0.00;0.62;;;;;21.00;1.00;;;;;;2253210;61;1456;-88
2023/09/23 10:49:13;94150.00;0.31;163.47;0.00;0.00;0.62;;;;;21.00;1.00;;;;;;2251820;61;1933;-87
2023/09/23 10:51:40;271860.00;0.91;469.54;15282.00;0.05;27.10;;;;;21.00;1.00;;;;;;2251884;61;1686;-89
2023/09/23 10:54:07;60535.00;0.20;105.40;0.00;0.00;0.62;;;;;21.00;1.00;;;;;;2251793;61;2129;-88
2023/09/23 10:56:34;104252.00;0.35;180.91;0.00;0.00;0.62;;;;;20.90;1.00;;;;;;2251798;61;2050;-88
2023/09/23 10:59:02;114312.00;0.38;198.27;0.00;0.00;0.62;;;;;21.10;1.00;;;;;;2251849;61;1027;-88
2023/09/23 11:01:29;191993.00;0.64;332.14;0.00;0.00;0.62;;;;;21.10;1.00;;;;;;2251823;61;1549;-88
2023/09/23 11:03:58;27220.00;0.09;47.77;0.00;0.00;0.62;;;;;21.20;1.00;;;;;;2251764;61;1085;-88
2023/09/23 11:06:25;0.00;0.00;0.62;0.00;0.00;0.62;;;;;21.00;1.00;;;;;;2251914;61;1011;-88
2023/09/23 11:08:52;50253.00;0.17;87.62;0.00;0.00;0.62;;;;;21.10;1.00;;;;;;2251776;61;1999;-89
2023/09/23 11:11:19;107817.00;0.36;187.06;0.00;0.00;0.62;;;;;20.90;1.00;;;;;;2251802;61;1645;-87
2023/09/23 11:13:46;53958.00;0.18;94.03;0.00;0.00;0.62;;;;;21.00;1.00;;;;;;2251852;61;921;-88
2023/09/23 11:16:13;15914.00;0.05;28.19;0.00;0.00;0.62;;;;;21.10;1.00;;;;;;2251821;61;1032;-87
2023/09/23 11:18:39;103623.00;0.35;179.83;0.00;0.00;0.62;;;;;21.10;1.00;;;;;;2251850;61;928;-88
2023/09/23 11:21:08;41397.00;0.14;72.31;0.00;0.00;0.62;;;;;21.20;1.00;;;;;;2251807;61;1403;-88
2023/09/23 11:23:35;0.00;0.00;0.62;0.00;0.00;0.62;;;;;21.70;1.00;;;;;;2251816;61;1013;-88
2023/09/23 11:26:02;0.00;0.00;0.62;0.00;0.00;0.62;;;;;22.10;1.00;;;;;;2251808;61;1086;-87
2023/09/23 11:28:29;34656.00;0.12;60.64;0.00;0.00;0.62;;;;;22.10;1.00;;;;;;2252080;61;1923;-87
2023/09/23 11:30:59;20786.00;0.07;36.63;0.00;0.00;0.62;;;;;22.20;1.00;;;;;;2252524;61;1305;-89
2023/09/23 11:33:26;152689.00;0.51;264.44;0.00;0.00;0.62;;;;;21.70;1.00;;;;;;2252494;61;1971;-89
2023/09/23 11:38:30;153358.00;0.51;265.59;0.00;0.00;0.62;;;;;21.60;1.00;;;;;;1999272;60;2198;-89
2023/09/23 11:40:57;122144.00;0.41;211.78;0.00;0.00;0.62;;;;;21.90;1.00;;;;;;2252361;61;1289;-88
2023/09/23 11:43:24;154122.00;0.51;266.91;0.00;0.00;0.62;;;;;21.90;1.00;;;;;;2252494;61;1099;-89
2023/09/23 11:45:51;2458.00;0.01;4.88;0.00;0.00;0.62;;;;;22.00;1.00;;;;;;2252457;61;1055;-88
2023/09/23 11:48:18;81560.00;0.27;141.73;0.00;0.00;0.62;;;;;22.40;1.00;;;;;;2252441;61;1911;-88
2023/09/23 11:50:46;0.00;0.00;0.62;0.00;0.00;0.62;;;;;22.40;1.00;;;;;;2252439;61;1387;-89
2023/09/23 11:53:13;86139.00;0.29;149.64;0.00;0.00;0.62;;;;;22.70;1.00;;;;;;2252442;61;1816;-89